createdAt,value
2019-06-15T00:01:48.489Z,100.00
2019-06-15T00:04:51.942Z,100.00
2019-06-15T00:07:55.275Z,100.00
2019-06-15T00:10:58.732Z,100.00
2019-06-15T00:14:03.309Z,100.00
2019-06-15T00:17:06.703Z,100.00
2019-06-15T00:20:11.166Z,100.00
2019-06-15T00:23:15.023Z,100.00
2019-06-15T00:26:18.202Z,100.00
2019-06-15T00:29:21.323Z,100.00
2019-06-15T00:32:24.502Z,100.00
2019-06-15T00:35:27.624Z,100.00
2019-06-15T00:38:30.760Z,100.00
2019-06-15T00:41:33.973Z,100.00
2019-06-15T00:44:37.019Z,100.00
2019-06-15T00:47:40.465Z,100.00
2019-06-15T00:50:45.107Z,100.00
2019-06-15T00:53:48.526Z,100.00
2019-06-15T00:56:51.587Z,100.00
2019-06-15T00:59:55.398Z,100.00
2019-06-15T01:02:58.446Z,100.00
2019-06-15T01:06:02.010Z,100.00
2019-06-15T01:09:06.427Z,100.00
2019-06-15T01:12:10.086Z,100.00
2019-06-15T01:15:13.904Z,100.00
2019-06-15T01:18:17.477Z,100.00
2019-06-15T01:21:21.066Z,100.00
2019-06-15T01:24:24.578Z,100.00
2019-06-15T01:27:27.926Z,100.00
2019-06-15T01:30:31.591Z,100.00
2019-06-15T01:33:36.022Z,100.00
2019-06-15T01:36:40.073Z,100.00
2019-06-15T01:39:43.690Z,100.00
2019-06-15T01:42:46.905Z,100.00
2019-06-15T01:45:50.926Z,100.00
2019-06-15T01:48:54.343Z,100.00
2019-06-15T01:51:57.803Z,100.00
2019-06-15T01:55:01.554Z,100.00
2019-06-15T01:58:33.692Z,100.00
2019-06-15T02:01:37.308Z,100.00
2019-06-15T02:04:40.893Z,100.00
2019-06-15T02:07:43.964Z,100.00
2019-06-15T02:10:47.160Z,100.00
2019-06-15T02:13:50.508Z,100.00
2019-06-15T02:16:54.926Z,100.00
2019-06-15T02:19:59.813Z,100.00
2019-06-15T02:23:03.670Z,100.00
2019-06-15T02:26:06.775Z,100.00
2019-06-15T02:29:10.337Z,100.00
2019-06-15T02:32:13.443Z,100.00
2019-06-15T02:35:17.140Z,100.00
2019-06-15T02:38:20.338Z,100.00
2019-06-15T02:41:25.805Z,100.00
2019-06-15T02:44:34.997Z,100.00
2019-06-15T02:47:46.819Z,100.00
2019-06-15T02:50:53.601Z,100.00
2019-06-15T02:53:57.203Z,100.00
2019-06-15T02:57:01.949Z,100.00
2019-06-15T03:00:11.389Z,100.00
2019-06-15T03:03:18.825Z,100.00
2019-06-15T03:06:24.980Z,100.00
2019-06-15T03:09:39.415Z,100.00
2019-06-15T03:12:44.213Z,100.00
2019-06-15T03:15:54.940Z,100.00
2019-06-15T03:19:09.915Z,100.00
2019-06-15T03:22:23.690Z,100.00
2019-06-15T03:25:35.655Z,100.00
2019-06-15T03:28:44.308Z,100.00
2019-06-15T03:31:48.035Z,100.00
2019-06-15T03:34:51.941Z,100.00
2019-06-15T03:37:56.339Z,100.00
2019-06-15T03:41:05.059Z,100.00
2019-06-15T03:44:09.962Z,100.00
2019-06-15T03:47:14.667Z,100.00
2019-06-15T03:50:19.161Z,100.00
2019-06-15T03:53:28.063Z,100.00
2019-06-15T03:56:41.219Z,100.00
2019-06-15T03:59:54.176Z,100.00
2019-06-15T04:03:02.600Z,100.00
2019-06-15T04:06:09.297Z,100.00
2019-06-15T04:09:18.005Z,100.00
2019-06-15T04:12:21.602Z,100.00
2019-06-15T04:15:29.924Z,100.00
2019-06-15T04:18:33.750Z,100.00
2019-06-15T04:21:39.306Z,100.00
2019-06-15T04:24:44.510Z,100.00
2019-06-15T04:27:53.059Z,100.00
2019-06-15T04:30:58.023Z,100.00
2019-06-15T04:46:20.627Z,100.00
2019-06-15T04:49:24.774Z,100.00
2019-06-15T04:52:28.427Z,100.00
2019-06-15T04:55:31.878Z,100.00
2019-06-15T04:58:35.261Z,100.00
2019-06-15T05:01:39.805Z,100.00
2019-06-15T05:04:43.039Z,100.00
2019-06-15T05:07:46.298Z,100.00
2019-06-15T05:10:49.737Z,100.00
2019-06-15T05:13:53.494Z,100.00
2019-06-15T05:16:56.605Z,100.00
2019-06-15T05:20:00.113Z,100.00
2019-06-15T05:23:03.784Z,100.00
2019-06-15T05:26:06.829Z,100.00
2019-06-15T05:29:10.027Z,100.00
2019-06-15T05:32:13.440Z,100.00
2019-06-15T05:35:17.144Z,100.00
2019-06-15T05:38:20.610Z,100.00
2019-06-15T05:41:24.183Z,100.00
2019-06-15T05:44:27.845Z,100.00
2019-06-15T05:47:32.074Z,100.00
2019-06-15T05:50:37.250Z,100.00
2019-06-15T05:53:41.490Z,100.00
2019-06-15T05:56:45.933Z,100.00
2019-06-15T05:59:51.344Z,100.00
2019-06-15T06:02:55.252Z,100.00
2019-06-15T06:06:00.278Z,100.00
2019-06-15T06:09:05.478Z,100.00
2019-06-15T06:12:25.311Z,100.00
2019-06-15T06:15:33.203Z,100.00
2019-06-15T06:18:41.708Z,100.00
2019-06-15T06:29:36.278Z,100.00
2019-06-15T06:32:44.935Z,100.00
2019-06-15T06:35:48.655Z,100.00
2019-06-15T06:38:53.104Z,100.00
2019-06-15T06:41:57.614Z,100.00
2019-06-15T06:45:02.083Z,100.00
2019-06-15T06:48:05.992Z,100.00
2019-06-15T06:51:09.327Z,100.00
2019-06-15T06:54:12.705Z,100.00
2019-06-15T06:57:16.071Z,100.00
2019-06-15T07:00:24.876Z,100.00
2019-06-15T07:03:38.385Z,100.00
2019-06-15T07:06:41.900Z,100.00
2019-06-15T07:09:45.399Z,100.00
2019-06-15T07:12:48.949Z,100.00
2019-06-15T07:15:53.070Z,100.00
2019-06-15T07:18:56.899Z,100.00
2019-06-15T07:22:02.265Z,100.00
2019-06-15T07:25:06.259Z,100.00
2019-06-15T07:28:09.386Z,100.00
2019-06-15T07:31:12.527Z,100.00
2019-06-15T07:34:15.960Z,100.00
2019-06-15T07:37:19.228Z,100.00
2019-06-15T07:40:22.671Z,100.00
2019-06-15T07:43:26.041Z,100.00
2019-06-15T07:46:29.481Z,100.00
2019-06-15T07:49:32.713Z,100.00
2019-06-15T07:52:35.983Z,100.00
2019-06-15T07:55:40.081Z,100.00
2019-06-15T07:58:43.262Z,100.00
2019-06-15T08:01:46.756Z,100.00
2019-06-15T08:04:50.060Z,100.00
2019-06-15T08:07:53.680Z,100.00
2019-06-15T08:10:56.880Z,100.00
2019-06-15T08:14:00.145Z,100.00
2019-06-15T08:17:03.198Z,100.00
2019-06-15T08:20:08.851Z,100.00
2019-06-15T08:23:11.942Z,100.00
2019-06-15T08:26:15.272Z,100.00
2019-06-15T08:29:18.579Z,100.00
2019-06-15T08:32:21.833Z,100.00
2019-06-15T08:35:25.033Z,100.00
2019-06-15T08:38:29.473Z,100.00
2019-06-15T08:41:32.750Z,100.00
2019-06-15T08:44:37.817Z,100.00
2019-06-15T08:47:41.740Z,100.00
2019-06-15T08:50:45.775Z,100.00
2019-06-15T08:53:49.645Z,100.00
2019-06-15T08:56:52.998Z,100.00
2019-06-15T08:59:58.667Z,100.00
2019-06-15T09:03:03.193Z,100.00
2019-06-15T09:06:06.668Z,100.00
2019-06-15T09:09:09.948Z,100.00
2019-06-15T09:12:13.193Z,100.00
2019-06-15T09:15:31.671Z,100.00
2019-06-15T09:18:35.005Z,100.00
2019-06-15T09:21:38.324Z,100.00
2019-06-15T09:24:42.169Z,100.00
2019-06-15T09:27:46.054Z,100.00
2019-06-15T09:30:49.963Z,100.00
2019-06-15T09:33:53.339Z,100.00
2019-06-15T09:36:56.850Z,100.00
2019-06-15T09:40:00.414Z,100.00
2019-06-15T09:43:08.216Z,100.00
2019-06-15T09:46:11.799Z,100.00
2019-06-15T09:49:16.910Z,100.00
2019-06-15T09:52:20.237Z,100.00
2019-06-15T09:55:24.112Z,100.00
2019-06-15T09:58:28.090Z,100.00
2019-06-15T10:01:31.622Z,100.00
2019-06-15T10:04:35.133Z,100.00
2019-06-15T10:07:40.824Z,100.00
2019-06-15T10:10:44.350Z,100.00
2019-06-15T10:13:48.056Z,100.00
2019-06-15T10:16:53.119Z,100.00
2019-06-15T10:19:57.433Z,100.00
2019-06-15T10:23:01.482Z,100.00
2019-06-15T10:26:05.764Z,100.00
2019-06-15T10:29:09.321Z,100.00
2019-06-15T10:32:13.029Z,100.00
2019-06-15T10:35:21.661Z,100.00
2019-06-15T10:38:25.087Z,100.00
2019-06-15T10:41:28.578Z,100.00
2019-06-15T10:44:32.588Z,100.00
2019-06-15T10:47:36.305Z,100.00
2019-06-15T10:50:40.250Z,100.00
2019-06-15T10:53:43.685Z,100.00
2019-06-15T10:56:47.219Z,100.00
2019-06-15T10:59:57.232Z,100.00
2019-06-15T11:02:57.197Z,100.00
2019-06-15T11:06:01.089Z,100.00
2019-06-15T11:09:07.748Z,100.00
2019-06-15T11:12:16.605Z,100.00
2019-06-15T11:15:20.800Z,100.00
2019-06-15T11:18:52.401Z,100.00
2019-06-15T11:22:00.685Z,100.00
2019-06-15T11:25:10.367Z,100.00
2019-06-15T11:28:20.580Z,100.00
2019-06-15T11:31:30.925Z,100.00
2019-06-15T11:34:52.898Z,100.00
2019-06-15T11:37:57.014Z,100.00
2019-06-15T11:41:18.991Z,100.00
2019-06-15T11:44:28.898Z,100.00
2019-06-15T11:47:32.917Z,100.00
2019-06-15T11:50:44.832Z,100.00
2019-06-15T11:53:49.583Z,100.00
2019-06-15T11:56:53.510Z,100.00
2019-06-15T11:59:57.185Z,100.00
2019-06-15T12:03:01.307Z,100.00
2019-06-15T12:06:07.055Z,100.00
2019-06-15T12:09:12.931Z,100.00
2019-06-15T12:12:20.514Z,100.00
2019-06-15T12:15:27.355Z,100.00
2019-06-15T12:18:31.057Z,100.00
2019-06-15T12:21:35.422Z,100.00
2019-06-15T12:24:41.545Z,100.00
2019-06-15T12:27:46.037Z,100.00
2019-06-15T12:30:49.988Z,100.00
2019-06-15T12:33:53.918Z,100.00
2019-06-15T12:36:58.467Z,100.00
2019-06-15T12:40:02.829Z,100.00
2019-06-15T12:43:06.567Z,100.00
2019-06-15T12:46:11.033Z,100.00
2019-06-15T12:49:15.214Z,100.00
2019-06-15T12:52:19.723Z,100.00
2019-06-15T12:55:23.661Z,100.00
2019-06-15T12:58:27.598Z,100.00
2019-06-15T13:01:31.324Z,100.00
2019-06-15T13:04:35.183Z,100.00
2019-06-15T13:07:39.839Z,100.00
2019-06-15T13:10:44.351Z,100.00
2019-06-15T13:13:48.691Z,100.00
2019-06-15T13:16:52.928Z,100.00
2019-06-15T13:19:57.337Z,100.00
2019-06-15T13:23:01.250Z,98.74
2019-06-15T13:26:04.947Z,93.51
2019-06-15T13:29:16.085Z,88.70
2019-06-15T13:32:20.888Z,93.07
2019-06-15T13:35:24.561Z,96.09
2019-06-15T13:38:28.431Z,100.00
2019-06-15T13:41:32.187Z,91.07
2019-06-15T13:44:36.571Z,91.87
2019-06-15T13:47:40.293Z,100.00
2019-06-15T13:50:44.576Z,91.17
2019-06-15T13:53:48.971Z,96.03
2019-06-15T13:56:52.905Z,100.00
2019-06-15T13:59:56.493Z,95.50
2019-06-15T14:03:00.404Z,90.05
2019-06-15T14:06:04.441Z,94.71
2019-06-15T14:09:08.348Z,98.97
2019-06-15T14:12:12.597Z,100.00
2019-06-15T14:15:17.644Z,100.00
2019-06-15T14:18:21.407Z,100.00
2019-06-15T14:21:25.465Z,96.90
2019-06-15T14:24:29.590Z,92.87
2019-06-15T14:27:33.539Z,87.24
2019-06-15T14:30:37.358Z,79.30
2019-06-15T14:33:41.802Z,76.11
2019-06-15T14:36:45.665Z,79.21
2019-06-15T14:39:49.900Z,76.12
2019-06-15T14:42:55.248Z,77.18
2019-06-15T14:46:00.071Z,81.66
2019-06-15T14:49:04.683Z,73.77
2019-06-15T14:52:08.682Z,84.83
2019-06-15T14:55:13.102Z,81.26
2019-06-15T14:58:17.301Z,89.27
2019-06-15T15:01:21.448Z,77.21
2019-06-15T15:04:26.616Z,81.54
2019-06-15T15:07:32.600Z,75.14
2019-06-15T15:10:42.202Z,80.42
2019-06-15T15:13:47.120Z,76.62
2019-06-15T15:16:51.451Z,83.74
2019-06-15T15:19:57.301Z,79.10
2019-06-15T15:23:02.906Z,77.29
2019-06-15T15:26:11.146Z,87.62
2019-06-15T15:29:16.321Z,81.14
2019-06-15T15:32:27.431Z,82.70
2019-06-15T15:35:29.154Z,81.32
2019-06-15T15:38:36.187Z,86.07
2019-06-15T15:41:43.822Z,85.26
2019-06-15T15:44:47.703Z,87.99
2019-06-15T15:47:51.417Z,92.79
2019-06-15T15:50:57.253Z,91.92
2019-06-15T15:54:00.461Z,95.54
2019-06-15T15:57:06.345Z,96.91
2019-06-15T16:00:12.743Z,92.84
2019-06-15T16:03:16.562Z,96.29
2019-06-15T16:06:20.425Z,95.73
2019-06-15T16:09:26.957Z,98.55
2019-06-15T16:12:29.596Z,97.82
2019-06-15T16:15:33.328Z,99.26
2019-06-15T16:18:36.900Z,97.85
2019-06-15T16:21:40.589Z,96.91
2019-06-15T16:24:47.887Z,100.00
2019-06-15T16:27:53.082Z,100.00
2019-06-15T16:31:06.749Z,95.63
2019-06-15T16:34:05.547Z,92.49
2019-06-15T16:37:08.793Z,86.17
2019-06-15T16:40:19.072Z,86.62
2019-06-15T16:43:25.348Z,89.40
2019-06-15T16:46:27.906Z,82.79
2019-06-15T16:49:31.843Z,81.60
2019-06-15T16:52:36.421Z,77.92
2019-06-15T16:55:40.319Z,78.48
2019-06-15T16:58:46.610Z,79.96
2019-06-15T17:01:49.093Z,80.31
2019-06-15T17:04:52.102Z,81.28
2019-06-15T17:07:56.472Z,81.39
2019-06-15T17:10:59.664Z,81.74
2019-06-15T17:14:02.636Z,79.39
2019-06-15T17:17:06.357Z,81.58
2019-06-15T17:20:10.497Z,84.80
2019-06-15T17:23:16.223Z,81.18
2019-06-15T17:26:18.551Z,83.76
2019-06-15T17:29:21.870Z,81.64
2019-06-15T17:32:26.216Z,81.34
2019-06-15T17:35:29.448Z,79.87
2019-06-15T17:38:32.744Z,82.45
2019-06-15T17:41:36.577Z,85.67
2019-06-15T17:44:40.483Z,81.79
2019-06-15T17:47:43.423Z,83.00
2019-06-15T17:50:47.746Z,79.01
2019-06-15T17:53:51.222Z,79.66
2019-06-15T17:56:56.711Z,81.49
2019-06-15T17:59:59.059Z,86.28
2019-06-15T18:03:02.049Z,86.66
2019-06-15T18:06:05.053Z,85.92
2019-06-15T18:09:08.036Z,88.21
2019-06-15T18:12:11.560Z,95.06
2019-06-15T18:15:14.799Z,88.73
2019-06-15T18:18:17.778Z,88.76
2019-06-15T18:21:21.161Z,90.22
2019-06-15T18:24:26.450Z,85.14
2019-06-15T18:27:29.312Z,84.93
2019-06-15T18:30:33.575Z,98.83
2019-06-15T18:33:36.758Z,100.00
2019-06-15T18:36:39.727Z,96.42
2019-06-15T18:39:43.525Z,97.57
2019-06-15T18:42:46.598Z,90.14
2019-06-15T18:45:49.569Z,87.75
2019-06-15T18:48:52.683Z,91.09
2019-06-15T18:51:56.771Z,100.00
2019-06-15T18:55:01.266Z,100.00
2019-06-15T18:58:04.705Z,99.78
2019-06-15T19:01:08.210Z,96.35
2019-06-15T19:04:24.621Z,100.00
2019-06-15T19:07:16.299Z,100.00
2019-06-15T19:10:31.189Z,100.00
2019-06-15T19:13:35.995Z,100.00
2019-06-15T19:16:40.119Z,100.00
2019-06-15T19:19:43.457Z,100.00
2019-06-15T19:22:47.586Z,100.00
2019-06-15T19:25:51.060Z,100.00
2019-06-15T19:28:55.979Z,100.00
2019-06-15T19:31:59.689Z,100.00
2019-06-15T19:35:03.144Z,100.00
2019-06-15T19:38:06.722Z,100.00
2019-06-15T19:41:09.685Z,100.00
2019-06-15T19:44:12.961Z,100.00
2019-06-15T19:47:16.405Z,100.00
2019-06-15T19:50:20.073Z,100.00
2019-06-15T19:53:23.441Z,100.00
2019-06-15T19:56:26.838Z,100.00
2019-06-15T19:59:30.095Z,100.00
2019-06-15T20:02:33.073Z,100.00
2019-06-15T20:05:36.984Z,100.00
2019-06-15T20:08:40.976Z,100.00
2019-06-15T20:11:46.629Z,100.00
2019-06-15T20:14:48.883Z,100.00
2019-06-15T20:17:52.145Z,100.00
2019-06-15T20:20:56.370Z,100.00
2019-06-15T20:24:11.982Z,100.00
2019-06-15T20:27:16.504Z,100.00
2019-06-15T20:30:19.860Z,100.00
2019-06-15T20:33:25.951Z,100.00
2019-06-15T20:36:28.869Z,100.00
2019-06-15T20:39:31.878Z,100.00
2019-06-15T20:42:36.647Z,100.00
2019-06-15T20:45:40.181Z,100.00
2019-06-15T20:48:44.059Z,100.00
2019-06-15T20:51:47.111Z,100.00
2019-06-15T20:54:50.651Z,100.00
2019-06-15T20:57:53.658Z,100.00
2019-06-15T21:00:57.090Z,100.00
2019-06-15T21:04:00.420Z,100.00
2019-06-15T21:07:03.451Z,100.00
2019-06-15T21:10:08.045Z,100.00
2019-06-15T21:13:11.088Z,100.00
2019-06-15T21:16:14.497Z,100.00
2019-06-15T21:19:18.091Z,100.00
2019-06-15T21:22:21.119Z,100.00
2019-06-15T21:25:26.310Z,100.00
2019-06-15T21:28:29.102Z,100.00
2019-06-15T21:31:32.191Z,100.00
2019-06-15T21:34:40.631Z,100.00
2019-06-15T21:37:46.299Z,100.00
2019-06-15T21:40:49.175Z,100.00
2019-06-15T21:43:53.145Z,100.00
2019-06-15T21:46:56.427Z,100.00
2019-06-15T21:50:04.405Z,100.00
2019-06-15T21:53:07.347Z,100.00
2019-06-15T21:56:10.329Z,100.00
2019-06-15T21:59:13.794Z,100.00
2019-06-15T22:02:18.636Z,100.00
2019-06-15T22:05:22.046Z,100.00
2019-06-15T22:08:26.415Z,100.00
2019-06-15T22:11:29.816Z,100.00
2019-06-15T22:14:33.270Z,100.00
2019-06-15T22:17:37.077Z,100.00
2019-06-15T22:20:41.318Z,100.00
2019-06-15T22:23:47.064Z,100.00
2019-06-15T22:26:49.823Z,100.00
2019-06-15T22:29:52.789Z,100.00
2019-06-15T22:32:56.293Z,100.00
2019-06-15T22:36:00.145Z,100.00
2019-06-15T22:39:06.309Z,100.00
2019-06-15T22:42:11.449Z,100.00
2019-06-15T22:45:17.212Z,100.00
2019-06-15T22:48:20.062Z,100.00
2019-06-15T22:51:23.031Z,100.00
2019-06-15T22:54:26.229Z,100.00
2019-06-15T22:57:29.180Z,100.00
2019-06-15T23:00:33.904Z,100.00
2019-06-15T23:03:36.957Z,100.00
2019-06-15T23:06:42.945Z,100.00
2019-06-15T23:09:46.802Z,100.00
2019-06-15T23:12:49.930Z,100.00
2019-06-15T23:15:52.880Z,100.00
2019-06-15T23:19:16.985Z,100.00
2019-06-15T23:22:40.269Z,100.00
2019-06-15T23:25:43.210Z,100.00
2019-06-15T23:28:46.864Z,100.00
2019-06-15T23:31:50.502Z,100.00
2019-06-15T23:34:56.370Z,100.00
2019-06-15T23:37:58.780Z,100.00
2019-06-15T23:41:01.905Z,100.00
2019-06-15T23:44:04.840Z,100.00
2019-06-15T23:47:08.477Z,100.00
2019-06-15T23:50:11.741Z,100.00
2019-06-15T23:53:16.888Z,100.00
2019-06-15T23:56:19.826Z,100.00
2019-06-15T23:59:22.785Z,100.00
